createdAt,value
2023-01-07T00:00:52.863Z,1.80
2023-01-07T00:03:20.893Z,0.82
2023-01-07T00:05:48.563Z,1.92
2023-01-07T00:08:16.132Z,0.85
2023-01-07T00:10:43.815Z,1.45
2023-01-07T00:13:11.446Z,1.50
2023-01-07T00:15:43.734Z,1.20
2023-01-07T00:18:11.360Z,1.40
2023-01-07T00:20:38.987Z,1.20
2023-01-07T00:23:08.924Z,1.55
2023-01-07T00:25:36.548Z,1.17
2023-01-07T00:28:04.278Z,1.50
2023-01-07T00:30:31.813Z,1.45
2023-01-07T00:33:05.240Z,1.17
2023-01-07T00:35:34.285Z,1.13
2023-01-07T00:38:01.904Z,1.20
2023-01-07T00:40:31.053Z,2.05
2023-01-07T00:43:03.335Z,1.42
2023-01-07T00:45:31.735Z,1.25
2023-01-07T00:48:01.313Z,1.40
2023-01-07T00:50:30.588Z,1.30
2023-01-07T00:52:58.401Z,1.30
2023-01-07T00:55:27.048Z,1.52
2023-01-07T00:57:55.275Z,1.50
2023-01-07T01:00:23.947Z,1.85
2023-01-07T01:02:56.185Z,1.17
2023-01-07T01:05:25.261Z,1.55
2023-01-07T01:07:53.088Z,2.35
2023-01-07T01:10:21.318Z,1.23
2023-01-07T01:12:49.348Z,2.20
2023-01-07T01:15:17.295Z,1.30
2023-01-07T01:17:44.904Z,1.80
2023-01-07T01:20:14.722Z,1.10
2023-01-07T01:22:43.846Z,2.05
2023-01-07T01:25:11.788Z,1.85
2023-01-07T01:27:39.733Z,1.90
2023-01-07T01:30:08.239Z,1.60
2023-01-07T01:32:36.225Z,1.73
2023-01-07T01:35:04.317Z,2.00
2023-01-07T01:37:31.938Z,1.60
2023-01-07T01:40:03.993Z,1.90
2023-01-07T01:42:32.238Z,1.73
2023-01-07T01:45:00.790Z,1.65
2023-01-07T01:47:34.098Z,1.65
2023-01-07T01:50:06.425Z,1.45
2023-01-07T01:52:36.063Z,1.90
2023-01-07T01:55:06.226Z,1.52
2023-01-07T01:57:34.929Z,1.75
2023-01-07T02:00:03.045Z,1.92
2023-01-07T02:02:33.807Z,1.48
2023-01-07T02:05:01.942Z,1.70
2023-01-07T02:07:29.552Z,2.08
2023-01-07T02:09:59.821Z,1.33
2023-01-07T02:12:36.026Z,1.58
2023-01-07T02:15:08.516Z,1.75
2023-01-07T02:17:56.870Z,2.20
2023-01-07T02:20:31.269Z,1.40
2023-01-07T02:23:08.919Z,1.80
2023-01-07T02:26:06.505Z,1.50
2023-01-07T02:28:52.286Z,1.52
2023-01-07T02:31:29.853Z,1.33
2023-01-07T02:34:03.538Z,1.60
2023-01-07T02:36:35.051Z,2.05
2023-01-07T02:39:13.748Z,2.03
2023-01-07T02:41:46.162Z,1.60
2023-01-07T02:44:19.559Z,1.57
2023-01-07T02:46:51.891Z,1.75
2023-01-07T02:49:20.957Z,1.55
2023-01-07T02:51:48.482Z,1.33
2023-01-07T02:54:17.931Z,1.40
2023-01-07T02:56:58.267Z,1.10
2023-01-07T02:59:29.616Z,1.48
2023-01-07T03:02:06.999Z,1.48
2023-01-07T03:04:50.671Z,2.10
2023-01-07T03:07:25.486Z,1.45
2023-01-07T03:09:57.511Z,1.87
2023-01-07T03:12:31.691Z,1.75
2023-01-07T03:15:03.702Z,2.00
2023-01-07T03:17:32.635Z,1.60
2023-01-07T03:20:02.055Z,2.20
2023-01-07T03:22:31.047Z,1.50
2023-01-07T03:24:59.181Z,1.48
2023-01-07T03:27:27.620Z,2.58
2023-01-07T03:29:56.050Z,2.17
2023-01-07T03:32:25.335Z,1.55
2023-01-07T03:34:53.356Z,2.20
2023-01-07T03:37:23.469Z,1.88
2023-01-07T03:39:51.476Z,1.33
2023-01-07T03:42:38.930Z,1.73
2023-01-07T03:45:07.675Z,2.47
2023-01-07T03:47:36.271Z,1.70
2023-01-07T03:50:04.740Z,2.65
2023-01-07T03:52:33.940Z,2.13
2023-01-07T03:55:01.509Z,1.58
2023-01-07T03:57:29.179Z,2.20
2023-01-07T03:59:56.798Z,1.33
2023-01-07T04:02:24.436Z,2.30
2023-01-07T04:04:51.960Z,2.15
2023-01-07T04:07:19.679Z,1.58
2023-01-07T04:09:50.376Z,1.85
2023-01-07T04:12:18.194Z,2.03
2023-01-07T04:14:46.163Z,2.20
2023-01-07T04:17:17.815Z,1.85
2023-01-07T04:19:45.481Z,2.08
2023-01-07T04:22:13.384Z,2.15
2023-01-07T04:24:41.061Z,2.00
2023-01-07T04:27:10.239Z,2.25
2023-01-07T04:29:37.892Z,1.40
2023-01-07T04:32:05.648Z,1.40
2023-01-07T04:34:33.155Z,2.03
2023-01-07T04:37:00.790Z,2.00
2023-01-07T04:39:28.706Z,1.90
2023-01-07T04:41:56.207Z,1.90
2023-01-07T04:44:25.337Z,2.10
2023-01-07T04:46:53.017Z,1.70
2023-01-07T04:49:20.558Z,2.07
2023-01-07T04:51:48.183Z,1.67
2023-01-07T04:54:15.856Z,2.03
2023-01-07T04:56:43.413Z,1.85
2023-01-07T04:59:11.064Z,1.70
2023-01-07T05:01:40.118Z,1.97
2023-01-07T05:04:07.786Z,2.03
2023-01-07T05:06:35.581Z,1.30
2023-01-07T05:09:03.236Z,1.27
2023-01-07T05:11:30.820Z,1.27
2023-01-07T05:14:00.662Z,1.43
2023-01-07T05:16:28.735Z,1.30
2023-01-07T05:18:57.696Z,1.20
2023-01-07T05:21:25.317Z,1.30
2023-01-07T05:23:53.299Z,1.50
2023-01-07T05:26:20.893Z,1.97
2023-01-07T05:28:52.325Z,1.50
2023-01-07T05:31:20.543Z,1.40
2023-01-07T05:33:48.231Z,1.20
2023-01-07T05:36:17.221Z,1.25
2023-01-07T05:38:44.906Z,1.30
2023-01-07T05:41:12.874Z,1.20
2023-01-07T05:43:43.961Z,1.48
2023-01-07T05:46:11.793Z,1.10
2023-01-07T05:48:39.357Z,1.20
2023-01-07T05:51:07.081Z,1.40
2023-01-07T05:53:36.559Z,1.15
2023-01-07T05:56:04.146Z,1.00
2023-01-07T05:58:31.666Z,1.20
2023-01-07T06:00:59.387Z,2.00
2023-01-07T06:03:27.321Z,1.10
2023-01-07T06:05:54.875Z,1.05
2023-01-07T06:08:22.948Z,1.40
2023-01-07T06:10:51.848Z,1.75
2023-01-07T06:13:19.552Z,1.40
2023-01-07T06:15:47.238Z,1.43
2023-01-07T06:18:19.409Z,1.50
2023-01-07T06:20:46.986Z,0.93
2023-01-07T06:23:14.633Z,0.95
2023-01-07T06:25:42.176Z,1.40
2023-01-07T06:28:11.256Z,0.93
2023-01-07T06:30:39.072Z,1.20
2023-01-07T06:33:06.695Z,1.10
2023-01-07T06:35:34.538Z,1.20
2023-01-07T06:38:03.137Z,1.20
2023-01-07T06:40:30.667Z,2.27
2023-01-07T06:42:58.371Z,1.05
2023-01-07T06:45:28.019Z,0.90
2023-01-07T06:47:57.338Z,1.55
2023-01-07T06:50:25.126Z,1.48
2023-01-07T06:52:53.139Z,1.10
2023-01-07T06:55:20.832Z,1.17
2023-01-07T06:57:48.415Z,1.50
2023-01-07T07:00:16.370Z,2.15
2023-01-07T07:02:45.305Z,1.80
2023-01-07T07:05:13.166Z,1.43
2023-01-07T07:07:40.874Z,1.50
2023-01-07T07:10:09.538Z,1.90
2023-01-07T07:12:41.913Z,1.10
2023-01-07T07:15:10.440Z,1.60
2023-01-07T07:17:38.003Z,1.23
2023-01-07T07:20:07.856Z,1.55
2023-01-07T07:22:35.558Z,1.80
2023-01-07T07:25:03.163Z,1.27
2023-01-07T07:27:30.908Z,1.52
2023-01-07T07:29:58.620Z,1.50
2023-01-07T07:32:28.447Z,1.80
2023-01-07T07:34:56.276Z,1.35
2023-01-07T07:37:25.253Z,2.15
2023-01-07T07:39:52.857Z,1.55
2023-01-07T07:42:20.579Z,1.13
2023-01-07T07:44:48.130Z,0.80
2023-01-07T07:47:15.825Z,1.00
2023-01-07T07:49:43.621Z,1.05
2023-01-07T07:52:11.208Z,1.35
2023-01-07T07:54:40.060Z,1.50
2023-01-07T07:57:07.835Z,1.17
2023-01-07T07:59:35.426Z,1.38
2023-01-07T08:02:03.111Z,1.27
2023-01-07T08:04:34.666Z,1.20
2023-01-07T08:07:02.303Z,1.47
2023-01-07T08:09:29.834Z,1.50
2023-01-07T08:11:59.024Z,1.10
2023-01-07T08:14:26.924Z,1.33
2023-01-07T08:16:54.597Z,1.23
2023-01-07T08:19:22.343Z,1.40
2023-01-07T08:21:50.052Z,2.15
2023-01-07T08:24:17.710Z,1.10
2023-01-07T08:26:45.411Z,1.08
2023-01-07T08:29:14.412Z,1.00
2023-01-07T08:31:41.998Z,0.97
2023-01-07T08:34:09.823Z,1.00
2023-01-07T08:36:37.374Z,1.30
2023-01-07T08:39:05.266Z,1.70
2023-01-07T08:41:32.940Z,1.48
2023-01-07T08:44:00.445Z,1.47
2023-01-07T08:46:29.614Z,1.20
2023-01-07T08:48:57.342Z,0.80
2023-01-07T08:51:24.921Z,1.67
2023-01-07T08:53:52.440Z,1.23
2023-01-07T08:56:20.332Z,1.50
2023-01-07T08:58:48.531Z,0.80
2023-01-07T09:01:16.189Z,1.13
2023-01-07T09:03:47.378Z,1.10
2023-01-07T09:06:15.056Z,1.20
2023-01-07T09:08:42.581Z,1.10
2023-01-07T09:11:10.185Z,1.05
2023-01-07T09:13:37.888Z,0.82
2023-01-07T09:16:05.731Z,1.25
2023-01-07T09:18:33.625Z,1.20
2023-01-07T09:21:02.890Z,1.33
2023-01-07T09:23:30.403Z,1.20
2023-01-07T09:25:58.034Z,1.15
2023-01-07T09:28:30.013Z,1.40
2023-01-07T09:30:57.515Z,0.90
2023-01-07T09:33:25.375Z,1.40
2023-01-07T09:35:53.167Z,1.40
2023-01-07T09:38:22.024Z,1.42
2023-01-07T09:40:49.915Z,1.73
2023-01-07T09:43:18.922Z,0.68
2023-01-07T09:45:47.991Z,1.50
2023-01-07T09:48:19.081Z,1.50
2023-01-07T09:50:49.708Z,1.13
2023-01-07T09:53:21.086Z,0.90
2023-01-07T09:56:10.762Z,0.82
2023-01-07T09:58:41.037Z,1.37
2023-01-07T10:01:15.431Z,0.75
2023-01-07T10:03:51.505Z,0.77
2023-01-07T10:06:35.059Z,0.80
2023-01-07T10:09:13.728Z,0.80
2023-01-07T10:11:46.870Z,1.00
2023-01-07T10:14:28.247Z,0.82
2023-01-07T10:16:58.087Z,0.50
2023-01-07T10:19:34.685Z,0.70
2023-01-07T10:22:04.031Z,1.00
2023-01-07T10:24:33.362Z,1.10
2023-01-07T10:27:04.546Z,1.45
2023-01-07T10:29:35.342Z,1.35
2023-01-07T10:32:07.879Z,1.30
2023-01-07T10:34:37.327Z,1.30
2023-01-07T10:37:07.631Z,1.30
2023-01-07T10:39:43.674Z,0.70
2023-01-07T10:42:16.724Z,1.45
2023-01-07T10:44:58.827Z,1.45
2023-01-07T10:47:35.380Z,1.30
2023-01-07T10:50:22.429Z,1.30
2023-01-07T10:52:55.722Z,1.00
2023-01-07T10:55:29.069Z,1.48
2023-01-07T10:57:57.944Z,1.35
2023-01-07T11:00:26.056Z,1.20
2023-01-07T11:02:55.798Z,1.20
2023-01-07T11:05:27.287Z,0.98
2023-01-07T11:07:57.666Z,1.15
2023-01-07T11:10:26.423Z,1.25
2023-01-07T11:12:55.032Z,0.70
2023-01-07T11:15:27.666Z,1.40
2023-01-07T11:17:56.621Z,0.98
2023-01-07T11:20:44.648Z,1.23
2023-01-07T11:23:19.390Z,0.75
2023-01-07T11:25:47.616Z,1.10
2023-01-07T11:28:19.055Z,1.43
2023-01-07T11:30:56.403Z,0.82
2023-01-07T11:34:01.451Z,0.90
2023-01-07T11:36:14.568Z,0.70
2023-01-07T11:38:42.679Z,1.08
2023-01-07T11:41:21.061Z,0.90
2023-01-07T11:43:49.899Z,0.80
2023-01-07T11:46:22.417Z,0.55
2023-01-07T11:48:53.378Z,1.70
2023-01-07T11:51:22.243Z,1.23
2023-01-07T11:53:54.691Z,0.90
2023-01-07T11:56:26.939Z,0.90
2023-01-07T11:59:09.472Z,1.33
2023-01-07T12:01:43.742Z,0.60
2023-01-07T12:04:22.497Z,0.68
2023-01-07T12:06:50.975Z,1.10
2023-01-07T12:09:28.259Z,0.50
2023-01-07T12:11:57.650Z,0.50
2023-01-07T12:14:31.765Z,0.60
2023-01-07T12:17:11.113Z,0.57
2023-01-07T12:20:08.973Z,0.70
2023-01-07T12:22:41.396Z,0.65
2023-01-07T12:25:14.462Z,0.57
2023-01-07T12:27:45.910Z,0.55
2023-01-07T12:30:25.895Z,0.43
2023-01-07T12:33:02.480Z,0.30
2023-01-07T12:35:32.289Z,0.30
2023-01-07T12:38:11.962Z,0.82
2023-01-07T12:40:41.279Z,0.50
2023-01-07T12:43:12.732Z,0.38
2023-01-07T12:45:42.630Z,0.43
2023-01-07T12:48:16.696Z,0.50
2023-01-07T12:50:46.246Z,0.30
2023-01-07T12:53:16.908Z,0.50
2023-01-07T12:55:47.700Z,0.32
2023-01-07T12:58:18.169Z,0.90
2023-01-07T13:00:48.244Z,0.50
2023-01-07T13:03:22.126Z,0.65
2023-01-07T13:05:53.237Z,0.50
2023-01-07T13:08:24.976Z,0.60
2023-01-07T13:10:54.360Z,0.50
2023-01-07T13:13:24.087Z,0.70
2023-01-07T13:15:52.659Z,0.70
2023-01-07T13:18:22.243Z,0.50
2023-01-07T13:20:54.285Z,0.70
2023-01-07T13:23:25.136Z,0.53
2023-01-07T13:26:02.731Z,0.45
2023-01-07T13:28:48.939Z,0.88
2023-01-07T13:31:22.836Z,0.57
2023-01-07T13:33:54.421Z,0.38
2023-01-07T13:36:26.414Z,0.30
2023-01-07T13:39:17.816Z,0.70
2023-01-07T13:41:52.655Z,0.60
2023-01-07T13:44:29.056Z,0.40
2023-01-07T13:46:57.063Z,0.40
2023-01-07T13:49:27.506Z,0.60
2023-01-07T13:51:55.461Z,0.63
2023-01-07T13:54:38.062Z,0.50
2023-01-07T13:57:37.613Z,0.60
2023-01-07T14:00:07.023Z,0.57
2023-01-07T14:02:51.348Z,0.60
2023-01-07T14:05:25.097Z,0.68
2023-01-07T14:07:54.123Z,0.50
2023-01-07T14:10:30.215Z,0.40
2023-01-07T14:13:04.816Z,0.60
2023-01-07T14:15:59.787Z,0.67
2023-01-07T14:18:45.068Z,0.50
2023-01-07T14:21:34.699Z,0.80
2023-01-07T14:24:16.783Z,0.90
2023-01-07T14:26:51.074Z,0.63
2023-01-07T14:29:33.520Z,0.43
2023-01-07T14:32:15.349Z,0.68
2023-01-07T14:34:43.206Z,0.63
2023-01-07T14:37:17.799Z,0.50
2023-01-07T14:39:47.705Z,0.70
2023-01-07T14:42:35.989Z,1.10
2023-01-07T14:45:03.831Z,0.82
2023-01-07T14:47:50.039Z,0.80
2023-01-07T14:50:21.776Z,0.82
2023-01-07T14:53:23.843Z,1.42
2023-01-07T14:56:02.066Z,1.00
2023-01-07T14:58:44.606Z,1.38
2023-01-07T15:01:30.072Z,0.85
2023-01-07T15:04:05.113Z,1.25
2023-01-07T15:06:35.374Z,0.68
2023-01-07T15:09:23.327Z,0.80
2023-01-07T15:12:11.786Z,1.13
2023-01-07T15:15:00.495Z,0.50
2023-01-07T15:17:31.622Z,1.08
2023-01-07T15:20:00.011Z,0.88
2023-01-07T15:22:51.294Z,0.77
2023-01-07T15:25:24.903Z,0.80
2023-01-07T15:27:56.982Z,0.75
2023-01-07T15:30:31.703Z,1.00
2023-01-07T15:33:05.513Z,0.90
2023-01-07T15:35:35.595Z,1.00
2023-01-07T15:38:23.227Z,0.77
2023-01-07T15:40:50.791Z,0.70
2023-01-07T15:43:22.351Z,0.40
2023-01-07T15:45:50.425Z,0.75
2023-01-07T15:48:17.998Z,0.60
2023-01-07T15:50:46.365Z,0.40
2023-01-07T15:53:26.186Z,0.57
2023-01-07T15:55:56.869Z,0.40
2023-01-07T15:58:31.099Z,0.38
2023-01-07T16:00:59.401Z,0.60
2023-01-07T16:03:27.878Z,0.50
2023-01-07T16:05:56.313Z,0.35
2023-01-07T16:08:28.304Z,0.50
2023-01-07T16:10:59.746Z,0.30
2023-01-07T16:13:29.839Z,0.40
2023-01-07T16:15:58.139Z,0.80
2023-01-07T16:18:25.981Z,0.50
2023-01-07T16:20:56.233Z,0.60
2023-01-07T16:23:25.079Z,0.45
2023-01-07T16:25:55.270Z,0.50
2023-01-07T16:28:25.234Z,0.57
2023-01-07T16:30:55.214Z,0.40
2023-01-07T16:33:24.436Z,0.40
2023-01-07T16:35:54.690Z,0.22
2023-01-07T16:38:22.565Z,0.30
2023-01-07T16:40:51.121Z,0.40
2023-01-07T16:43:43.004Z,0.70
2023-01-07T16:46:24.472Z,0.47
2023-01-07T16:49:15.237Z,0.50
2023-01-07T16:51:44.201Z,0.60
2023-01-07T16:54:40.190Z,0.50
2023-01-07T16:57:18.692Z,0.60
2023-01-07T16:59:49.439Z,1.20
2023-01-07T17:02:27.486Z,0.82
2023-01-07T17:04:56.429Z,0.50
2023-01-07T17:07:25.706Z,0.50
2023-01-07T17:09:53.692Z,0.50
2023-01-07T17:12:28.243Z,0.43
2023-01-07T17:14:56.116Z,0.80
2023-01-07T17:17:30.342Z,0.40
2023-01-07T17:20:03.560Z,0.50
2023-01-07T17:22:32.503Z,0.35
2023-01-07T17:25:03.134Z,0.60
2023-01-07T17:27:31.324Z,0.35
2023-01-07T17:30:01.814Z,0.40
2023-01-07T17:32:31.267Z,0.55
2023-01-07T17:35:03.066Z,0.30
2023-01-07T17:37:30.601Z,0.35
2023-01-07T17:39:58.238Z,0.40
2023-01-07T17:42:45.430Z,0.40
2023-01-07T17:45:17.422Z,0.70
2023-01-07T17:47:46.572Z,0.40
2023-01-07T17:50:14.920Z,0.43
2023-01-07T17:52:44.313Z,0.32
2023-01-07T17:55:14.926Z,0.37
2023-01-07T17:57:42.449Z,0.32
2023-01-07T18:00:14.323Z,0.40
2023-01-07T18:02:42.103Z,0.40
2023-01-07T18:05:12.980Z,0.30
2023-01-07T18:07:40.722Z,0.40
2023-01-07T18:10:08.914Z,0.50
2023-01-07T18:12:35.563Z,0.45
2023-01-07T18:15:03.595Z,0.38
2023-01-07T18:17:31.259Z,0.30
2023-01-07T18:19:59.024Z,0.40
2023-01-07T18:22:32.639Z,0.47
2023-01-07T18:25:00.707Z,0.40
2023-01-07T18:27:28.676Z,0.30
2023-01-07T18:29:56.283Z,0.40
2023-01-07T18:32:23.900Z,0.60
2023-01-07T18:34:51.449Z,0.35
2023-01-07T18:37:19.043Z,0.60
2023-01-07T18:39:48.009Z,0.30
2023-01-07T18:42:17.939Z,0.30
2023-01-07T18:44:45.556Z,0.30
2023-01-07T18:47:13.192Z,0.22
2023-01-07T18:49:40.794Z,0.40
2023-01-07T18:52:09.011Z,0.30
2023-01-07T18:54:37.990Z,0.50
2023-01-07T18:57:07.187Z,0.20
2023-01-07T18:59:34.812Z,0.30
2023-01-07T19:02:02.430Z,0.22
2023-01-07T19:04:30.226Z,0.30
2023-01-07T19:06:57.865Z,0.40
2023-01-07T19:09:29.784Z,0.47
2023-01-07T19:11:57.354Z,1.00
2023-01-07T19:14:26.808Z,0.25
2023-01-07T19:16:55.073Z,0.50
2023-01-07T19:19:22.664Z,0.50
2023-01-07T19:21:50.528Z,0.50
2023-01-07T19:24:18.164Z,0.50
2023-01-07T19:26:46.904Z,0.40
2023-01-07T19:29:14.671Z,0.63
2023-01-07T19:31:45.527Z,0.52
2023-01-07T19:34:13.141Z,0.50
2023-01-07T19:36:41.995Z,0.63
2023-01-07T19:39:09.588Z,0.75
2023-01-07T19:41:37.085Z,0.50
2023-01-07T19:44:04.697Z,0.75
2023-01-07T19:46:34.448Z,0.90
2023-01-07T19:49:03.444Z,1.25
2023-01-07T19:51:31.176Z,0.82
2023-01-07T19:53:58.746Z,0.65
2023-01-07T19:56:26.298Z,0.77
2023-01-07T19:58:54.777Z,0.80
2023-01-07T20:01:28.055Z,0.82
2023-01-07T20:03:56.164Z,0.80
2023-01-07T20:06:27.269Z,1.10
2023-01-07T20:08:55.358Z,0.95
2023-01-07T20:11:23.315Z,0.70
2023-01-07T20:13:51.236Z,0.70
2023-01-07T20:16:21.763Z,0.60
2023-01-07T20:18:50.209Z,0.77
2023-01-07T20:21:18.997Z,1.10
2023-01-07T20:23:48.117Z,0.93
2023-01-07T20:26:17.024Z,0.95
2023-01-07T20:28:45.872Z,1.38
2023-01-07T20:31:14.973Z,1.45
2023-01-07T20:33:43.872Z,1.10
2023-01-07T20:36:12.722Z,1.20
2023-01-07T20:38:40.455Z,0.75
2023-01-07T20:41:16.830Z,1.13
2023-01-07T20:43:44.459Z,1.40
2023-01-07T20:46:12.326Z,1.52
2023-01-07T20:48:40.077Z,1.40
2023-01-07T20:51:08.179Z,1.55
2023-01-07T20:53:35.991Z,1.40
2023-01-07T20:56:04.110Z,1.10
2023-01-07T20:58:34.219Z,1.13
2023-01-07T21:01:03.200Z,1.87
2023-01-07T21:03:31.325Z,1.30
2023-01-07T21:05:59.060Z,1.17
2023-01-07T21:08:26.937Z,1.80
2023-01-07T21:10:54.743Z,1.15
2023-01-07T21:13:22.673Z,1.93
2023-01-07T21:15:54.646Z,1.38
2023-01-07T21:18:22.232Z,1.40
2023-01-07T21:20:49.883Z,1.40
2023-01-07T21:23:17.460Z,1.38
2023-01-07T21:25:47.583Z,0.97
2023-01-07T21:28:15.551Z,1.52
2023-01-07T21:30:43.488Z,1.38
2023-01-07T21:33:12.405Z,1.60
2023-01-07T21:35:40.488Z,1.83
2023-01-07T21:38:08.161Z,1.63
2023-01-07T21:40:35.857Z,1.63
2023-01-07T21:43:03.613Z,1.92
2023-01-07T21:45:37.502Z,1.95
2023-01-07T21:48:05.364Z,1.60
2023-01-07T21:50:34.377Z,1.80
2023-01-07T21:53:02.139Z,1.90
2023-01-07T21:55:29.662Z,1.10
2023-01-07T21:57:57.137Z,1.65
2023-01-07T22:00:24.750Z,1.67
2023-01-07T22:02:52.304Z,1.90
2023-01-07T22:05:19.790Z,1.70
2023-01-07T22:07:48.813Z,2.13
2023-01-07T22:10:16.505Z,2.08
2023-01-07T22:12:46.400Z,1.88
2023-01-07T22:15:14.068Z,1.20
2023-01-07T22:17:41.661Z,1.55
2023-01-07T22:20:10.009Z,1.95
2023-01-07T22:22:37.655Z,3.35
2023-01-07T22:25:07.222Z,1.73
2023-01-07T22:27:34.811Z,1.80
2023-01-07T22:30:03.068Z,2.38
2023-01-07T22:32:30.678Z,1.05
2023-01-07T22:34:58.284Z,1.75
2023-01-07T22:37:27.560Z,1.60
2023-01-07T22:39:57.749Z,1.67
2023-01-07T22:42:29.764Z,1.23
2023-01-07T22:44:59.424Z,1.33
2023-01-07T22:47:28.527Z,2.08
2023-01-07T22:49:56.827Z,1.52
2023-01-07T22:52:24.435Z,1.57
2023-01-07T22:54:56.475Z,1.70
2023-01-07T22:57:24.322Z,1.10
2023-01-07T22:59:53.359Z,1.42
2023-01-07T23:02:22.205Z,1.20
2023-01-07T23:04:49.946Z,1.23
2023-01-07T23:07:17.547Z,1.45
2023-01-07T23:09:45.123Z,2.25
2023-01-07T23:12:13.130Z,1.50
2023-01-07T23:14:41.493Z,1.63
2023-01-07T23:17:11.550Z,1.30
2023-01-07T23:19:39.206Z,1.10
2023-01-07T23:22:06.881Z,1.25
2023-01-07T23:24:36.689Z,0.93
2023-01-07T23:27:04.398Z,1.40
2023-01-07T23:29:32.054Z,1.17
2023-01-07T23:32:00.873Z,1.02
2023-01-07T23:34:29.843Z,1.20
2023-01-07T23:36:57.523Z,1.23
2023-01-07T23:39:25.058Z,1.73
2023-01-07T23:41:52.712Z,1.47
2023-01-07T23:44:20.493Z,1.33
2023-01-07T23:46:48.021Z,0.93
2023-01-07T23:49:15.671Z,1.00
2023-01-07T23:51:45.734Z,1.90
2023-01-07T23:54:13.461Z,1.30
2023-01-07T23:56:41.041Z,1.17
2023-01-07T23:59:09.682Z,1.63
